createdAt,value
2023-02-02T00:04:29.156Z,100836.63
2023-02-02T00:09:29.944Z,100833.47
2023-02-02T00:14:30.926Z,100836.75
2023-02-02T00:19:31.692Z,100833.19
2023-02-02T00:24:30.581Z,100841.44
2023-02-02T00:29:32.342Z,100848.69
2023-02-02T00:34:31.210Z,100856.31
2023-02-02T00:39:29.967Z,100848.47
2023-02-02T00:44:47.451Z,100844.47
2023-02-02T00:49:46.721Z,100835.44
2023-02-02T00:54:45.515Z,100832.69
2023-02-02T00:59:45.775Z,100830.38
2023-02-02T01:04:44.646Z,100833.38
2023-02-02T01:09:43.535Z,100818.53
2023-02-02T01:14:42.393Z,100821.41
2023-02-02T01:19:42.810Z,100835.69
2023-02-02T01:24:41.933Z,100816.06
2023-02-02T01:29:40.853Z,100806.59
2023-02-02T01:34:41.798Z,100811.50
2023-02-02T01:39:42.025Z,100805.69
2023-02-02T01:45:05.926Z,100818.66
2023-02-02T01:50:07.432Z,100811.63
2023-02-02T01:55:11.642Z,100820.09
2023-02-02T02:00:15.038Z,100825.31
2023-02-02T02:05:17.382Z,100826.25
2023-02-02T02:10:19.335Z,100833.38
2023-02-02T02:15:35.876Z,100829.81
2023-02-02T02:21:26.519Z,100842.47
2023-02-02T02:26:50.086Z,100852.09
2023-02-02T02:32:12.578Z,100841.25
2023-02-02T02:37:18.001Z,100823.41
2023-02-02T02:42:21.577Z,100843.56
2023-02-02T02:47:23.912Z,100843.47
2023-02-02T02:52:23.333Z,100876.47
2023-02-02T02:57:40.065Z,100836.72
2023-02-02T03:02:49.482Z,100824.75
2023-02-02T03:07:53.204Z,100834.63
2023-02-02T03:12:52.865Z,100848.06
2023-02-02T03:17:55.049Z,100846.75
2023-02-02T03:22:53.894Z,100859.13
2023-02-02T03:27:53.065Z,100854.13
2023-02-02T03:32:54.487Z,100857.63
2023-02-02T03:37:53.805Z,100871.22
2023-02-02T03:42:52.891Z,100853.38
2023-02-02T03:47:53.169Z,100856.22
2023-02-02T03:52:52.091Z,100857.03
2023-02-02T03:57:51.077Z,100863.66
2023-02-02T04:02:50.040Z,100866.28
2023-02-02T04:07:50.354Z,100865.50
2023-02-02T04:12:49.359Z,100869.97
2023-02-02T04:17:48.337Z,100864.66
2023-02-02T04:22:47.292Z,100867.19
2023-02-02T04:27:47.612Z,100875.69
2023-02-02T04:32:46.899Z,100884.22
2023-02-02T04:37:45.717Z,100879.00
2023-02-02T04:42:45.531Z,100878.81
2023-02-02T04:47:45.774Z,100878.81
2023-02-02T04:52:44.618Z,100882.44
2023-02-02T04:57:43.683Z,100880.88
2023-02-02T05:02:43.502Z,100877.47
2023-02-02T05:07:43.951Z,100877.41
2023-02-02T05:12:42.812Z,100878.06
2023-02-02T05:17:42.114Z,100884.84
2023-02-02T05:22:44.113Z,100879.91
2023-02-02T05:27:46.083Z,100885.31
2023-02-02T05:32:44.838Z,100888.63
2023-02-02T05:37:44.697Z,100896.41
2023-02-02T05:42:43.546Z,100905.88
2023-02-02T05:47:44.033Z,100901.41
2023-02-02T05:52:44.197Z,100911.78
2023-02-02T05:57:43.054Z,100904.28
2023-02-02T06:02:43.503Z,100900.91
2023-02-02T06:07:42.474Z,100909.84
2023-02-02T06:12:41.837Z,100903.41
2023-02-02T06:17:41.108Z,100909.22
2023-02-02T06:22:43.254Z,100908.31
2023-02-02T06:27:42.171Z,100915.31
2023-02-02T06:32:41.580Z,100921.25
2023-02-02T06:37:42.316Z,100924.81
2023-02-02T06:42:41.604Z,100907.31
2023-02-02T06:47:40.623Z,100906.53
2023-02-02T06:52:39.387Z,100911.34
2023-02-02T06:57:39.795Z,100900.38
2023-02-02T07:02:38.768Z,100909.50
2023-02-02T07:07:37.716Z,100904.94
2023-02-02T07:12:36.558Z,100923.97
2023-02-02T07:17:36.978Z,100924.88
2023-02-02T07:22:35.931Z,100941.22
2023-02-02T07:27:34.854Z,100948.63
2023-02-02T07:32:33.790Z,100950.31
2023-02-02T07:37:34.177Z,100968.91
2023-02-02T07:42:33.238Z,100967.75
2023-02-02T07:47:32.548Z,100979.91
2023-02-02T07:52:31.590Z,100977.72
2023-02-02T07:57:32.004Z,100966.88
2023-02-02T08:02:36.546Z,100969.81
2023-02-02T08:07:36.151Z,100942.75
2023-02-02T08:12:36.794Z,100952.44
2023-02-02T08:17:46.295Z,100933.00
2023-02-02T08:22:45.638Z,100936.34
2023-02-02T08:27:48.498Z,100924.31
2023-02-02T08:32:57.106Z,100917.25
2023-02-02T08:37:56.485Z,100899.19
2023-02-02T08:42:57.083Z,100878.53
2023-02-02T08:48:10.387Z,100910.34
2023-02-02T08:53:10.571Z,100900.09
2023-02-02T08:58:13.546Z,100902.56
2023-02-02T09:03:19.551Z,100919.59
2023-02-02T09:08:18.508Z,100911.84
2023-02-02T09:13:26.338Z,100915.72
2023-02-02T09:18:56.377Z,100907.16
2023-02-02T09:29:35.082Z,100917.81
2023-02-02T09:34:48.052Z,100903.88
2023-02-02T09:40:15.091Z,100875.16
2023-02-02T09:45:37.827Z,100868.50
2023-02-02T09:50:43.870Z,100847.69
2023-02-02T09:55:46.667Z,100845.16
2023-02-02T10:01:04.838Z,100843.25
2023-02-02T10:06:21.533Z,100834.50
2023-02-02T10:11:30.936Z,100836.81
2023-02-02T10:16:32.563Z,100805.03
2023-02-02T10:21:41.319Z,100812.53
2023-02-02T10:26:45.317Z,100801.63
2023-02-02T10:31:57.634Z,100810.94
2023-02-02T10:37:23.907Z,100800.19
2023-02-02T10:42:32.022Z,100798.31
2023-02-02T10:47:36.309Z,100778.94
2023-02-02T10:52:39.943Z,100804.00
2023-02-02T10:57:50.909Z,100790.63
2023-02-02T11:02:53.312Z,100795.06
2023-02-02T11:07:56.735Z,100788.09
2023-02-02T11:13:01.870Z,100781.16
2023-02-02T11:18:17.887Z,100775.38
2023-02-02T11:23:20.796Z,100766.84
2023-02-02T11:28:24.455Z,100744.78
2023-02-02T11:33:35.339Z,100746.38
2023-02-02T11:38:37.765Z,100732.16
2023-02-02T11:43:44.846Z,100733.44
2023-02-02T11:48:53.399Z,100718.72
2023-02-02T11:54:05.948Z,100708.50
2023-02-02T11:59:06.581Z,100713.88
2023-02-02T12:04:26.865Z,100731.13
2023-02-02T12:09:28.866Z,100720.78
2023-02-02T12:14:37.727Z,100710.88
2023-02-02T12:20:06.870Z,100707.00
2023-02-02T12:25:52.302Z,100735.47
2023-02-02T12:31:13.585Z,100745.69
2023-02-02T12:36:32.043Z,100762.69
2023-02-02T12:41:52.253Z,100737.88
2023-02-02T12:47:16.143Z,100730.16
2023-02-02T12:52:41.325Z,100729.31
2023-02-02T13:10:19.790Z,100733.91
2023-02-02T13:15:24.212Z,100722.69
2023-02-02T13:20:35.969Z,100729.41
2023-02-02T13:25:45.094Z,100725.34
2023-02-02T13:30:49.895Z,100729.41
2023-02-02T13:35:59.231Z,100733.53
2023-02-02T13:41:08.423Z,100735.84
2023-02-02T13:46:19.930Z,100760.66
2023-02-02T13:51:46.569Z,100764.09
2023-02-02T13:56:56.228Z,100743.72
2023-02-02T14:02:02.809Z,100759.34
2023-02-02T14:12:36.790Z,100760.00
2023-02-02T14:17:56.488Z,100789.56
2023-02-02T14:23:05.984Z,100764.88
2023-02-02T14:28:12.999Z,100759.56
2023-02-02T14:46:39.974Z,100782.84
2023-02-02T14:52:27.649Z,100787.56
2023-02-02T14:57:49.953Z,100808.09
2023-02-02T15:28:41.061Z,100812.69
2023-02-02T15:34:02.063Z,100812.38
2023-02-02T15:39:28.358Z,100836.00
2023-02-02T15:44:42.573Z,100821.50
2023-02-02T15:49:46.363Z,100838.16
2023-02-02T15:55:59.205Z,100836.34
2023-02-02T16:01:37.624Z,100849.16
2023-02-02T16:06:42.353Z,100866.34
2023-02-02T16:11:50.731Z,100882.69
2023-02-02T16:16:58.000Z,100894.03
2023-02-02T16:22:16.949Z,100908.13
2023-02-02T16:28:04.194Z,100914.63
2023-02-02T16:33:35.046Z,100910.88
2023-02-02T16:38:36.726Z,100922.69
2023-02-02T16:43:44.495Z,100921.84
2023-02-02T16:50:04.263Z,100928.19
2023-02-02T16:55:18.993Z,100932.88
2023-02-02T17:00:23.231Z,100938.19
2023-02-02T17:05:26.069Z,100941.00
2023-02-02T17:10:42.155Z,100932.47
2023-02-02T17:15:41.531Z,100949.38
2023-02-02T17:20:44.143Z,100954.38
2023-02-02T17:25:48.335Z,100954.31
2023-02-02T17:30:50.423Z,100955.25
2023-02-02T17:35:56.097Z,100957.06
2023-02-02T17:41:01.205Z,100967.34
2023-02-02T17:46:04.324Z,100963.94
2023-02-02T17:51:07.384Z,100980.44
2023-02-02T17:56:08.325Z,100971.50
2023-02-02T18:01:08.696Z,100969.56
2023-02-02T18:06:08.804Z,100966.88
2023-02-02T18:11:36.561Z,100967.13
2023-02-02T18:16:36.575Z,100978.03
2023-02-02T18:21:35.791Z,100990.09
2023-02-02T18:26:36.456Z,100989.47
2023-02-02T18:31:35.641Z,100988.66
2023-02-02T18:36:36.489Z,100985.94
2023-02-02T18:41:37.377Z,100997.38
2023-02-02T18:46:39.212Z,100995.69
2023-02-02T18:51:39.278Z,101000.13
2023-02-02T18:56:40.429Z,100998.41
2023-02-02T19:01:39.618Z,101000.25
2023-02-02T19:06:56.070Z,100988.13
2023-02-02T19:11:56.424Z,101007.19
2023-02-02T19:17:02.941Z,100993.25
2023-02-02T19:22:05.200Z,100996.78
2023-02-02T19:27:16.493Z,100997.47
2023-02-02T19:32:18.671Z,101013.44
2023-02-02T19:37:32.316Z,101003.78
2023-02-02T19:42:32.961Z,101008.16
2023-02-02T19:47:34.053Z,101010.91
2023-02-02T19:52:33.624Z,101019.56
2023-02-02T19:57:38.742Z,101034.41
2023-02-02T20:02:50.254Z,101030.03
2023-02-02T20:07:53.486Z,101030.72
2023-02-02T20:12:54.912Z,101013.53
2023-02-02T20:17:55.073Z,101012.56
2023-02-02T20:22:54.517Z,101020.34
2023-02-02T20:27:59.065Z,101035.97
2023-02-02T20:33:01.859Z,101037.94
2023-02-02T20:38:01.378Z,101051.00
2023-02-02T20:43:03.235Z,101045.00
2023-02-02T20:48:02.370Z,101044.91
2023-02-02T20:53:01.333Z,101048.59
2023-02-02T20:58:00.435Z,101046.75
2023-02-02T21:03:00.778Z,101059.75
2023-02-02T21:08:05.066Z,101065.91
2023-02-02T21:13:04.671Z,101074.69
2023-02-02T21:18:06.040Z,101072.94
2023-02-02T21:23:05.223Z,101089.22
2023-02-02T21:28:04.542Z,101089.28
2023-02-02T21:33:06.499Z,101091.84
2023-02-02T21:38:16.878Z,101083.31
2023-02-02T21:43:17.740Z,101089.53
2023-02-02T21:48:28.929Z,101085.06
2023-02-02T21:53:29.186Z,101091.16
2023-02-02T21:58:34.083Z,101081.47
2023-02-02T22:03:39.494Z,101094.56
2023-02-02T22:08:38.654Z,101090.06
2023-02-02T22:13:37.549Z,101096.28
2023-02-02T22:18:39.022Z,101106.59
2023-02-02T22:23:40.088Z,101110.78
2023-02-02T22:28:41.127Z,101110.63
2023-02-02T22:33:41.319Z,101116.63
2023-02-02T22:38:40.513Z,101107.44
2023-02-02T22:43:39.348Z,101099.50
2023-02-02T22:48:38.572Z,101085.53
2023-02-02T22:53:38.795Z,101094.91
2023-02-02T22:58:37.774Z,101097.69
2023-02-02T23:03:36.949Z,101103.84
2023-02-02T23:08:35.849Z,101109.16
2023-02-02T23:13:39.067Z,101115.22
2023-02-02T23:18:40.794Z,101104.59
2023-02-02T23:23:39.742Z,101104.75
2023-02-02T23:28:40.078Z,101097.97
2023-02-02T23:33:39.159Z,101092.75
2023-02-02T23:38:37.976Z,101104.91
2023-02-02T23:43:36.880Z,101099.59
2023-02-02T23:48:38.358Z,101098.69
2023-02-02T23:53:37.120Z,101099.47
2023-02-02T23:58:35.828Z,101103.75
